Time;durP1;ratioP1;P1;durP2;ratioP2;P2;SDS_P1;SDS_P2;PMS_P1;PMS_P2;Temp;Humidity;BMP_temperature;BMP_pressure;BME280_temperature;BME280_humidity;BME280_pressure;Samples;Min_cycle;Max_cycle;Signal;HPM_P1;HPM_P2
2024/01/06 00:00:49;;;;;;;7.40;3.40;;;;;;;;;;5013691;28;20261;-28
2024/01/06 00:03:24;;;;;;;5.03;3.60;;;;;;;;;;5006790;28;20236;-27
2024/01/06 00:16:19;;;;;;;4.37;3.30;;;;;;;;;;5012812;28;20262;-26
2024/01/06 00:23:58;;;;;;;5.33;3.73;;;;;;;;;;5031104;28;20210;-35
2024/01/06 00:27:06;;;;;;;4.57;3.20;;;;;;;;;;5007680;28;20736;-33
2024/01/06 00:45:34;;;;;;;7.60;3.57;;;;;;;;;;5018638;28;20304;-35
2024/01/06 00:48:08;;;;;;;7.70;4.47;;;;;;;;;;5015444;28;20218;-34
2024/01/06 00:50:40;;;;;;;7.40;4.70;;;;;;;;;;5012134;28;20203;-34
2024/01/06 00:53:10;;;;;;;8.77;5.30;;;;;;;;;;5006419;28;20211;-34
2024/01/06 00:55:48;;;;;;;7.97;4.73;;;;;;;;;;5014077;28;20223;-33
2024/01/06 00:58:24;;;;;;;6.90;3.90;;;;;;;;;;5013119;28;20211;-32
2024/01/06 01:01:02;;;;;;;7.47;3.73;;;;;;;;;;5010472;28;20218;-34
2024/01/06 01:03:37;;;;;;;5.57;3.63;;;;;;;;;;5010511;28;20301;-36
2024/01/06 01:06:08;;;;;;;5.50;3.67;;;;;;;;;;5014617;28;20314;-30
2024/01/06 01:08:38;;;;;;;7.37;3.47;;;;;;;;;;4997225;28;20227;-37
2024/01/06 01:11:07;;;;;;;7.13;3.40;;;;;;;;;;5011996;28;20300;-32
2024/01/06 01:16:29;;;;;;;4.97;3.27;;;;;;;;;;5013930;28;20207;-33
2024/01/06 01:19:01;;;;;;;4.57;2.90;;;;;;;;;;5013434;28;20223;-37
2024/01/06 01:21:32;;;;;;;6.00;3.20;;;;;;;;;;5010840;28;20217;-34
2024/01/06 01:29:09;;;;;;;5.63;3.20;;;;;;;;;;5048111;28;20306;-34
2024/01/06 01:31:42;;;;;;;4.33;2.90;;;;;;;;;;5049140;28;20300;-32
2024/01/06 01:34:20;;;;;;;6.70;3.30;;;;;;;;;;5052339;28;20240;-38
2024/01/06 01:36:56;;;;;;;8.47;3.20;;;;;;;;;;5047083;28;20233;-34
2024/01/06 01:39:24;;;;;;;4.97;2.93;;;;;;;;;;5043406;28;20214;-33
2024/01/06 01:41:53;;;;;;;3.40;2.73;;;;;;;;;;5037314;28;20206;-32
2024/01/06 01:44:24;;;;;;;5.97;3.10;;;;;;;;;;5045562;28;20316;-32
2024/01/06 01:46:56;;;;;;;3.60;2.83;;;;;;;;;;5043291;28;20207;-33
2024/01/06 01:49:28;;;;;;;4.57;2.73;;;;;;;;;;5042359;28;20218;-33
2024/01/06 01:51:57;;;;;;;2.77;2.50;;;;;;;;;;5034858;28;20242;-36
2024/01/06 01:54:34;;;;;;;5.40;2.60;;;;;;;;;;5049742;28;20271;-35
2024/01/06 01:57:05;;;;;;;4.53;3.10;;;;;;;;;;5040456;28;20300;-32
2024/01/06 01:59:35;;;;;;;3.30;2.70;;;;;;;;;;5034808;28;20202;-34
2024/01/06 02:07:29;;;;;;;5.13;2.73;;;;;;;;;;5023381;28;20249;-34
2024/01/06 02:10:01;;;;;;;4.60;2.70;;;;;;;;;;5025937;28;20265;-33
2024/01/06 02:12:35;;;;;;;3.10;2.23;;;;;;;;;;5029716;28;20219;-34
2024/01/06 02:15:23;;;;;;;5.47;2.73;;;;;;;;;;5021400;28;20219;-35
2024/01/06 02:17:58;;;;;;;6.37;2.63;;;;;;;;;;5013242;28;20298;-32
2024/01/06 02:25:43;;;;;;;6.07;3.57;;;;;;;;;;5016280;28;20239;-34
2024/01/06 02:31:09;;;;;;;3.53;2.87;;;;;;;;;;5005558;28;20195;-33
2024/01/06 02:33:46;;;;;;;5.80;2.70;;;;;;;;;;5012667;28;20225;-36
2024/01/06 02:36:27;;;;;;;3.07;2.43;;;;;;;;;;5012626;28;20227;-35
2024/01/06 02:38:57;;;;;;;3.23;2.20;;;;;;;;;;5005155;28;20207;-35
2024/01/06 02:41:30;;;;;;;4.60;2.63;;;;;;;;;;5002295;28;20242;-32
2024/01/06 02:44:08;;;;;;;3.20;2.73;;;;;;;;;;4981717;28;20207;-35
2024/01/06 02:46:41;;;;;;;4.63;2.70;;;;;;;;;;5015963;28;20222;-34
2024/01/06 02:49:14;;;;;;;4.50;2.30;;;;;;;;;;5016905;28;20226;-33
2024/01/06 02:51:52;;;;;;;2.33;2.13;;;;;;;;;;5008870;28;20210;-33
2024/01/06 02:54:22;;;;;;;2.87;2.30;;;;;;;;;;5002420;28;20427;-34
2024/01/06 02:56:55;;;;;;;2.20;2.00;;;;;;;;;;5013651;28;20234;-33
2024/01/06 02:59:30;;;;;;;5.07;2.40;;;;;;;;;;5016605;28;20269;-33
2024/01/06 03:01:59;;;;;;;3.13;2.07;;;;;;;;;;5003985;28;20266;-34
2024/01/06 03:04:30;;;;;;;3.87;2.47;;;;;;;;;;5012522;28;20322;-37
2024/01/06 03:06:59;;;;;;;6.40;2.20;;;;;;;;;;5016614;28;20203;-33
2024/01/06 03:09:31;;;;;;;4.67;2.13;;;;;;;;;;5016283;28;20219;-33
2024/01/06 03:23:13;;;;;;;3.80;2.17;;;;;;;;;;5033531;28;20225;-33
2024/01/06 03:25:53;;;;;;;3.33;2.00;;;;;;;;;;5018809;28;20235;-33
2024/01/06 03:28:32;;;;;;;2.77;2.23;;;;;;;;;;5011763;28;20211;-34
2024/01/06 03:31:07;;;;;;;2.50;2.00;;;;;;;;;;5009343;28;20230;-31
2024/01/06 03:33:40;;;;;;;2.43;2.00;;;;;;;;;;5013490;28;20214;-35
2024/01/06 03:36:07;;;;;;;3.20;1.87;;;;;;;;;;5016000;28;20235;-38
2024/01/06 03:38:38;;;;;;;3.63;1.83;;;;;;;;;;5015046;28;20208;-35
2024/01/06 03:41:11;;;;;;;1.77;1.30;;;;;;;;;;5013620;28;20298;-36
2024/01/06 03:43:46;;;;;;;2.83;1.53;;;;;;;;;;5005623;28;20257;-33
2024/01/06 03:46:18;;;;;;;1.57;1.30;;;;;;;;;;5014207;28;20591;-35
2024/01/06 03:48:47;;;;;;;4.77;1.70;;;;;;;;;;5015481;28;20215;-31
2024/01/06 03:51:20;;;;;;;2.27;1.73;;;;;;;;;;5010961;28;20299;-36
2024/01/06 03:53:55;;;;;;;2.70;1.97;;;;;;;;;;5014550;28;20203;-34
2024/01/06 04:04:15;;;;;;;1.83;1.67;;;;;;;;;;5030049;28;20218;-27
2024/01/06 04:06:49;;;;;;;1.50;1.40;;;;;;;;;;5014648;28;20204;-27
2024/01/06 04:09:22;;;;;;;2.73;1.70;;;;;;;;;;5008547;28;20314;-27
2024/01/06 04:11:55;;;;;;;1.93;1.57;;;;;;;;;;5015564;28;20215;-27
2024/01/06 04:14:28;;;;;;;1.47;1.33;;;;;;;;;;5006752;28;20231;-28
2024/01/06 04:17:02;;;;;;;1.97;1.80;;;;;;;;;;5014532;28;20211;-28
2024/01/06 04:27:21;;;;;;;5.60;2.20;;;;;;;;;;5051649;28;20310;-27
2024/01/06 04:29:52;;;;;;;3.53;1.57;;;;;;;;;;5046645;28;20233;-28
2024/01/06 04:32:22;;;;;;;3.77;1.73;;;;;;;;;;5042043;28;20214;-28
2024/01/06 04:34:51;;;;;;;3.63;1.73;;;;;;;;;;5045698;28;20229;-29
2024/01/06 04:37:24;;;;;;;3.77;1.80;;;;;;;;;;5054354;28;20212;-27
2024/01/06 04:39:55;;;;;;;2.10;1.63;;;;;;;;;;5045002;28;20202;-26
2024/01/06 04:42:27;;;;;;;3.77;1.87;;;;;;;;;;5043593;28;20246;-28
2024/01/06 04:45:00;;;;;;;2.07;1.57;;;;;;;;;;5042821;28;20241;-26
2024/01/06 04:47:30;;;;;;;2.40;1.73;;;;;;;;;;5033653;28;20211;-28
2024/01/06 04:50:04;;;;;;;2.47;1.73;;;;;;;;;;5043096;28;20232;-29
2024/01/06 04:52:35;;;;;;;2.03;1.60;;;;;;;;;;5038955;28;20214;-28
2024/01/06 04:55:05;;;;;;;2.07;1.53;;;;;;;;;;5052512;28;20221;-28
2024/01/06 04:57:40;;;;;;;2.87;2.23;;;;;;;;;;5045467;28;20214;-29
2024/01/06 05:03:18;;;;;;;3.17;1.67;;;;;;;;;;5040158;28;20196;-29
2024/01/06 05:05:52;;;;;;;2.03;1.50;;;;;;;;;;5035928;28;20276;-27
2024/01/06 05:08:22;;;;;;;1.73;1.63;;;;;;;;;;5039943;28;20213;-28
2024/01/06 05:10:56;;;;;;;2.43;1.90;;;;;;;;;;5047021;28;20707;-28
2024/01/06 05:13:24;;;;;;;2.23;1.73;;;;;;;;;;5038157;28;20206;-27
2024/01/06 05:15:52;;;;;;;4.70;1.50;;;;;;;;;;5040707;28;20261;-27
2024/01/06 05:18:26;;;;;;;1.90;1.80;;;;;;;;;;5034362;28;20217;-26
2024/01/06 05:21:03;;;;;;;2.13;1.70;;;;;;;;;;5042753;28;20260;-29
2024/01/06 05:26:17;;;;;;;2.13;1.57;;;;;;;;;;5057583;22;20838;-29
2024/01/06 05:28:54;;;;;;;3.30;1.80;;;;;;;;;;5053085;28;20210;-28
2024/01/06 05:31:25;;;;;;;2.37;1.77;;;;;;;;;;5043475;28;20244;-26
2024/01/06 05:33:55;;;;;;;3.60;1.87;;;;;;;;;;5044596;28;20213;-28
2024/01/06 05:36:34;;;;;;;1.77;1.67;;;;;;;;;;5047611;28;20240;-26
2024/01/06 05:39:04;;;;;;;2.90;2.13;;;;;;;;;;5052090;28;20206;-27
2024/01/06 05:41:48;;;;;;;2.03;1.83;;;;;;;;;;5049099;28;20199;-28
2024/01/06 05:44:20;;;;;;;2.23;1.93;;;;;;;;;;5049111;28;20232;-27
2024/01/06 05:46:51;;;;;;;4.97;1.70;;;;;;;;;;5051682;28;20210;-28
2024/01/06 05:49:24;;;;;;;3.50;1.60;;;;;;;;;;5053356;28;20201;-28
2024/01/06 05:59:43;;;;;;;1.73;1.53;;;;;;;;;;5051073;28;20229;-29
2024/01/06 06:08:02;;;;;;;3.20;1.30;;;;;;;;;;5030361;28;20209;-34
2024/01/06 06:18:38;;;;;;;1.70;1.60;;;;;;;;;;5029474;28;20214;-36
2024/01/06 06:21:07;;;;;;;3.83;1.20;;;;;;;;;;5029585;28;20202;-32
2024/01/06 06:23:39;;;;;;;4.73;1.73;;;;;;;;;;5022418;28;20230;-32
2024/01/06 06:26:27;;;;;;;3.63;1.20;;;;;;;;;;5020879;28;20237;-34
2024/01/06 06:29:00;;;;;;;2.00;1.27;;;;;;;;;;5022373;28;20203;-30
2024/01/06 06:31:34;;;;;;;3.53;1.60;;;;;;;;;;5016539;28;20223;-34
2024/01/06 06:34:04;;;;;;;1.63;1.30;;;;;;;;;;5023313;28;20210;-36
2024/01/06 06:36:48;;;;;;;2.10;1.33;;;;;;;;;;5022379;28;20202;-31
2024/01/06 06:39:23;;;;;;;2.90;1.60;;;;;;;;;;5005976;28;20214;-37
2024/01/06 06:42:06;;;;;;;1.97;1.43;;;;;;;;;;5015347;28;20257;-34
2024/01/06 06:44:36;;;;;;;2.27;1.30;;;;;;;;;;5013223;28;20297;-33
2024/01/06 06:47:08;;;;;;;4.03;1.83;;;;;;;;;;5021192;28;20315;-33
2024/01/06 06:49:43;;;;;;;1.93;1.73;;;;;;;;;;5016488;28;20219;-36
2024/01/06 06:52:13;;;;;;;2.43;1.70;;;;;;;;;;5014332;28;20306;-34
2024/01/06 06:54:48;;;;;;;3.63;1.50;;;;;;;;;;5020407;28;20227;-37
2024/01/06 06:57:24;;;;;;;2.20;1.80;;;;;;;;;;5026818;28;20214;-35
2024/01/06 07:00:04;;;;;;;3.40;2.27;;;;;;;;;;5030159;28;20210;-33
2024/01/06 07:02:45;;;;;;;7.50;3.90;;;;;;;;;;5029676;28;20210;-36
2024/01/06 07:05:18;;;;;;;6.10;3.50;;;;;;;;;;5016334;28;20233;-36
2024/01/06 07:21:16;;;;;;;1.87;1.77;;;;;;;;;;5042659;28;20222;-33
2024/01/06 07:23:57;;;;;;;1.60;1.50;;;;;;;;;;5048459;28;20209;-33
2024/01/06 07:26:32;;;;;;;2.13;1.87;;;;;;;;;;5031859;28;20288;-33
2024/01/06 07:29:02;;;;;;;1.70;1.60;;;;;;;;;;5028013;28;20284;-31
2024/01/06 07:31:36;;;;;;;3.03;1.40;;;;;;;;;;5029172;28;20260;-35
2024/01/06 07:34:17;;;;;;;4.83;1.60;;;;;;;;;;5035472;28;20215;-34
2024/01/06 07:36:57;;;;;;;1.60;1.50;;;;;;;;;;5035649;28;20260;-37
2024/01/06 07:39:35;;;;;;;1.87;1.43;;;;;;;;;;5022247;28;20227;-32
2024/01/06 07:42:06;;;;;;;1.83;1.63;;;;;;;;;;5026131;28;20209;-35
2024/01/06 07:44:39;;;;;;;2.83;1.50;;;;;;;;;;5028937;28;20237;-34
2024/01/06 07:47:11;;;;;;;2.43;1.83;;;;;;;;;;5029982;28;20221;-33
2024/01/06 07:49:46;;;;;;;1.97;1.80;;;;;;;;;;5035246;28;20213;-34
2024/01/06 07:52:26;;;;;;;4.83;1.53;;;;;;;;;;5024059;28;20246;-34
2024/01/06 07:54:55;;;;;;;3.00;1.37;;;;;;;;;;5025814;28;20250;-36
2024/01/06 07:57:28;;;;;;;3.30;1.63;;;;;;;;;;5028808;28;20203;-32
2024/01/06 08:00:02;;;;;;;2.10;1.80;;;;;;;;;;5035079;28;20206;-31
2024/01/06 08:02:57;;;;;;;2.33;1.57;;;;;;;;;;5024653;28;20215;-34
2024/01/06 08:05:37;;;;;;;3.20;2.00;;;;;;;;;;5027030;28;20751;-35
2024/01/06 08:08:16;;;;;;;3.50;1.90;;;;;;;;;;5031041;28;20213;-33
2024/01/06 08:10:48;;;;;;;3.83;2.23;;;;;;;;;;5024548;28;20222;-33
2024/01/06 08:13:26;;;;;;;2.50;1.67;;;;;;;;;;5024077;28;20206;-36
2024/01/06 08:15:59;;;;;;;2.70;1.63;;;;;;;;;;5024216;28;20223;-34
2024/01/06 08:18:30;;;;;;;1.87;1.30;;;;;;;;;;5035138;28;20205;-32
2024/01/06 08:21:02;;;;;;;1.83;1.53;;;;;;;;;;5034614;28;20215;-33
2024/01/06 08:23:32;;;;;;;4.60;1.83;;;;;;;;;;5023084;28;20263;-35
2024/01/06 08:26:00;;;;;;;1.73;1.60;;;;;;;;;;5033020;28;20225;-35
2024/01/06 08:28:32;;;;;;;1.70;1.33;;;;;;;;;;5035533;28;20297;-33
2024/01/06 08:31:02;;;;;;;3.70;2.07;;;;;;;;;;5027945;28;20362;-36
2024/01/06 08:33:32;;;;;;;3.40;1.67;;;;;;;;;;5031217;28;20297;-33
2024/01/06 08:36:00;;;;;;;2.77;1.43;;;;;;;;;;5034525;28;20219;-35
2024/01/06 08:38:33;;;;;;;5.90;2.10;;;;;;;;;;5032610;28;20207;-33
2024/01/06 08:41:08;;;;;;;3.13;1.70;;;;;;;;;;5025352;28;20210;-36
2024/01/06 08:43:45;;;;;;;5.60;1.80;;;;;;;;;;5032972;28;20265;-32
2024/01/06 08:46:17;;;;;;;3.07;2.00;;;;;;;;;;5033926;28;20245;-34
2024/01/06 08:48:46;;;;;;;3.70;2.47;;;;;;;;;;5034406;28;20286;-31
2024/01/06 08:51:20;;;;;;;4.53;2.40;;;;;;;;;;5033783;28;20247;-32
2024/01/06 08:53:54;;;;;;;2.63;2.30;;;;;;;;;;5028564;28;20206;-33
2024/01/06 08:56:26;;;;;;;4.07;2.10;;;;;;;;;;5029669;28;20299;-31
2024/01/06 08:58:56;;;;;;;2.03;1.77;;;;;;;;;;5034375;28;20245;-33
2024/01/06 09:04:06;;;;;;;3.53;2.93;;;;;;;;;;5012200;28;20769;-33
2024/01/06 09:06:37;;;;;;;3.80;2.00;;;;;;;;;;5014342;28;20198;-32
2024/01/06 09:14:23;;;;;;;3.83;2.57;;;;;;;;;;5043114;28;20328;-28
2024/01/06 09:16:57;;;;;;;4.07;2.47;;;;;;;;;;5034323;28;20203;-28
2024/01/06 09:19:43;;;;;;;3.00;2.13;;;;;;;;;;5046324;28;20232;-28
2024/01/06 09:22:23;;;;;;;7.50;2.53;;;;;;;;;;5043242;28;20221;-29
2024/01/06 09:24:54;;;;;;;5.23;2.50;;;;;;;;;;5033047;28;20233;-29
2024/01/06 09:27:28;;;;;;;3.73;3.00;;;;;;;;;;5033741;28;20202;-29
2024/01/06 09:30:02;;;;;;;5.70;3.43;;;;;;;;;;5044433;28;20209;-29
2024/01/06 09:32:36;;;;;;;4.20;3.63;;;;;;;;;;5039650;28;20328;-29
2024/01/06 09:35:07;;;;;;;5.20;3.93;;;;;;;;;;5033724;28;20240;-27
2024/01/06 09:37:38;;;;;;;3.47;2.53;;;;;;;;;;5039750;28;20213;-27
2024/01/06 09:40:13;;;;;;;6.13;3.17;;;;;;;;;;5035929;28;20206;-29
2024/01/06 09:42:42;;;;;;;4.37;2.90;;;;;;;;;;5046808;28;20220;-29
2024/01/06 09:45:14;;;;;;;5.33;3.33;;;;;;;;;;5042637;28;20240;-27
2024/01/06 09:47:48;;;;;;;3.60;2.87;;;;;;;;;;5047546;28;20210;-28
2024/01/06 09:50:25;;;;;;;8.07;3.30;;;;;;;;;;5050140;28;20206;-28
2024/01/06 09:53:05;;;;;;;4.23;2.80;;;;;;;;;;5034131;28;20209;-30
2024/01/06 09:55:35;;;;;;;6.30;2.73;;;;;;;;;;5040992;28;20233;-28
2024/01/06 09:58:07;;;;;;;5.47;3.23;;;;;;;;;;5041197;28;20215;-29
2024/01/06 10:00:43;;;;;;;5.37;2.93;;;;;;;;;;5040387;28;20214;-27
2024/01/06 10:03:12;;;;;;;7.33;3.50;;;;;;;;;;5040336;28;20207;-27
2024/01/06 10:11:00;;;;;;;3.50;2.60;;;;;;;;;;5050040;28;20218;-28
2024/01/06 10:40:11;;;;;;;2.53;1.97;;;;;;;;;;5023738;28;20202;-28
2024/01/06 10:42:52;;;;;;;6.70;2.40;;;;;;;;;;5049425;28;20194;-28
2024/01/06 10:45:25;;;;;;;3.97;2.37;;;;;;;;;;5047714;28;20233;-28
2024/01/06 10:48:00;;;;;;;3.67;2.20;;;;;;;;;;5048202;28;20206;-29
2024/01/06 10:50:45;;;;;;;5.33;2.10;;;;;;;;;;5044389;28;20228;-28
2024/01/06 10:53:18;;;;;;;2.87;2.40;;;;;;;;;;5047738;28;20213;-26
2024/01/06 10:56:09;;;;;;;2.77;2.47;;;;;;;;;;5048565;28;20249;-27
2024/01/06 10:58:51;;;;;;;5.60;2.43;;;;;;;;;;5044276;28;20304;-28
2024/01/06 11:01:33;;;;;;;3.83;2.07;;;;;;;;;;5044285;28;20216;-29
2024/01/06 11:16:57;;;;;;;5.30;2.53;;;;;;;;;;5040922;28;20257;-28
2024/01/06 11:19:52;;;;;;;2.23;2.03;;;;;;;;;;5053460;28;20201;-27
2024/01/06 11:22:26;;;;;;;2.30;2.10;;;;;;;;;;5051083;28;20202;-27
2024/01/06 11:24:57;;;;;;;4.37;2.10;;;;;;;;;;5040034;28;20224;-26
2024/01/06 11:27:28;;;;;;;4.47;1.90;;;;;;;;;;5044678;28;20194;-29
2024/01/06 11:29:57;;;;;;;2.60;2.30;;;;;;;;;;5050460;28;20275;-28
2024/01/06 11:32:39;;;;;;;3.20;2.07;;;;;;;;;;5046814;28;20313;-28
2024/01/06 11:35:09;;;;;;;2.10;1.90;;;;;;;;;;5036869;28;20328;-28
2024/01/06 11:37:39;;;;;;;3.40;2.20;;;;;;;;;;5033264;28;20253;-26
2024/01/06 11:40:13;;;;;;;2.30;1.70;;;;;;;;;;5049240;28;20214;-28
2024/01/06 11:42:46;;;;;;;1.13;1.03;;;;;;;;;;5044153;28;20209;-27
2024/01/06 11:45:15;;;;;;;2.50;1.33;;;;;;;;;;5035435;28;20227;-27
2024/01/06 11:47:51;;;;;;;1.70;1.60;;;;;;;;;;5040954;28;20264;-27
2024/01/06 11:50:32;;;;;;;1.70;1.60;;;;;;;;;;5034996;28;20213;-29
2024/01/06 11:53:02;;;;;;;1.80;1.43;;;;;;;;;;5039298;28;20680;-27
2024/01/06 11:55:31;;;;;;;2.40;1.83;;;;;;;;;;5040011;28;20305;-27
2024/01/06 11:58:03;;;;;;;2.40;2.20;;;;;;;;;;5049280;28;20217;-29
2024/01/06 12:00:32;;;;;;;3.43;1.77;;;;;;;;;;5034437;28;20280;-26
2024/01/06 12:03:02;;;;;;;2.27;1.90;;;;;;;;;;5043481;28;20198;-27
2024/01/06 12:05:32;;;;;;;1.67;1.57;;;;;;;;;;5041305;28;20226;-29
2024/01/06 12:08:06;;;;;;;1.70;1.60;;;;;;;;;;5041156;28;20207;-29
2024/01/06 12:10:41;;;;;;;1.80;1.70;;;;;;;;;;5040718;28;20258;-26
2024/01/06 12:13:11;;;;;;;1.77;1.67;;;;;;;;;;5035768;28;20272;-29
2024/01/06 12:15:40;;;;;;;2.57;1.97;;;;;;;;;;5044021;28;20234;-29
2024/01/06 12:18:11;;;;;;;2.70;1.97;;;;;;;;;;5032508;28;20211;-29
2024/01/06 12:20:42;;;;;;;2.27;1.70;;;;;;;;;;5046068;28;20219;-29
2024/01/06 12:23:10;;;;;;;1.90;1.70;;;;;;;;;;5049130;28;20270;-28
2024/01/06 12:25:46;;;;;;;1.70;1.60;;;;;;;;;;5038325;28;20229;-28
2024/01/06 12:28:17;;;;;;;1.73;1.63;;;;;;;;;;5042199;28;20516;-26
2024/01/06 12:30:46;;;;;;;1.70;1.60;;;;;;;;;;5052261;28;20300;-27
2024/01/06 12:33:18;;;;;;;2.37;1.80;;;;;;;;;;5040166;28;20234;-28
2024/01/06 12:35:51;;;;;;;1.50;1.40;;;;;;;;;;5043476;28;20754;-28
2024/01/06 12:38:27;;;;;;;2.13;1.93;;;;;;;;;;5036305;28;20233;-28
2024/01/06 12:41:00;;;;;;;2.50;2.20;;;;;;;;;;5039404;28;20214;-26
2024/01/06 12:43:31;;;;;;;1.77;1.67;;;;;;;;;;5040233;28;20202;-26
2024/01/06 12:46:00;;;;;;;2.17;1.70;;;;;;;;;;5032928;28;20219;-26
2024/01/06 12:48:31;;;;;;;1.50;1.40;;;;;;;;;;5040033;28;20244;-29
2024/01/06 12:51:00;;;;;;;3.00;1.60;;;;;;;;;;5034330;28;20203;-28
2024/01/06 12:53:44;;;;;;;1.87;1.77;;;;;;;;;;5044048;28;20316;-28
2024/01/06 12:56:16;;;;;;;1.87;1.77;;;;;;;;;;5040827;28;20272;-27
2024/01/06 12:58:46;;;;;;;2.67;2.47;;;;;;;;;;5032518;28;20207;-27
2024/01/06 13:01:21;;;;;;;2.33;2.13;;;;;;;;;;5036645;28;20565;-27
2024/01/06 13:03:53;;;;;;;2.33;1.80;;;;;;;;;;5035518;28;20292;-29
2024/01/06 13:06:27;;;;;;;2.20;2.00;;;;;;;;;;5047243;28;20273;-29
2024/01/06 13:08:56;;;;;;;2.17;1.70;;;;;;;;;;5037056;28;20202;-28
2024/01/06 13:11:42;;;;;;;2.13;1.67;;;;;;;;;;5040947;28;20251;-28
2024/01/06 13:17:14;;;;;;;2.97;1.80;;;;;;;;;;5126676;27;20622;-32
2024/01/06 13:19:41;;;;;;;2.03;1.83;;;;;;;;;;5124422;28;20203;-37
2024/01/06 13:22:10;;;;;;;2.00;1.90;;;;;;;;;;5122380;28;20211;-34
2024/01/06 13:24:40;;;;;;;2.20;2.00;;;;;;;;;;5121245;28;20228;-33
2024/01/06 13:27:09;;;;;;;4.63;2.80;;;;;;;;;;5105842;28;20227;-37
2024/01/06 13:29:40;;;;;;;3.03;2.20;;;;;;;;;;5109093;28;20262;-33
2024/01/06 13:32:11;;;;;;;2.60;2.13;;;;;;;;;;5109608;28;20211;-36
2024/01/06 13:34:39;;;;;;;2.23;2.03;;;;;;;;;;5103186;28;20545;-33
2024/01/06 13:37:07;;;;;;;2.50;1.90;;;;;;;;;;5103065;28;20238;-34
2024/01/06 13:39:36;;;;;;;2.60;2.17;;;;;;;;;;5096921;28;20281;-32
2024/01/06 13:42:04;;;;;;;3.57;2.80;;;;;;;;;;5109403;28;20200;-35
2024/01/06 13:44:33;;;;;;;2.63;2.43;;;;;;;;;;5108370;28;20232;-34
2024/01/06 13:47:03;;;;;;;2.53;2.30;;;;;;;;;;5100771;28;20205;-34
2024/01/06 13:49:37;;;;;;;3.33;2.33;;;;;;;;;;5109160;28;20646;-30
2024/01/06 13:52:09;;;;;;;3.10;2.80;;;;;;;;;;5109446;27;20219;-34
2024/01/06 13:54:38;;;;;;;4.53;2.53;;;;;;;;;;5107673;28;20318;-37
2024/01/06 13:57:15;;;;;;;3.10;2.80;;;;;;;;;;5093017;28;20224;-36
2024/01/06 13:59:48;;;;;;;2.43;2.23;;;;;;;;;;5100376;28;20200;-35
2024/01/06 14:02:21;;;;;;;4.90;2.27;;;;;;;;;;5107329;28;20200;-38
2024/01/06 14:04:52;;;;;;;2.90;2.53;;;;;;;;;;5107223;28;20223;-33
2024/01/06 14:07:27;;;;;;;4.27;3.00;;;;;;;;;;5102481;28;20295;-41
2024/01/06 14:09:55;;;;;;;3.03;2.37;;;;;;;;;;5101905;28;20266;-34
2024/01/06 14:12:27;;;;;;;3.17;2.87;;;;;;;;;;5107115;28;20210;-35
2024/01/06 14:14:55;;;;;;;3.43;2.90;;;;;;;;;;5107065;28;20228;-37
2024/01/06 14:17:24;;;;;;;3.83;2.67;;;;;;;;;;5098739;28;20217;-37
2024/01/06 14:19:56;;;;;;;3.87;2.70;;;;;;;;;;5106725;28;20215;-33
2024/01/06 14:22:25;;;;;;;3.47;3.07;;;;;;;;;;5107452;28;20258;-34
2024/01/06 14:24:54;;;;;;;5.63;3.10;;;;;;;;;;5099397;28;20295;-34
2024/01/06 14:27:30;;;;;;;3.80;3.10;;;;;;;;;;5091076;28;20208;-34
2024/01/06 14:30:00;;;;;;;5.30;3.57;;;;;;;;;;5091336;28;20544;-35
2024/01/06 14:32:33;;;;;;;3.80;3.20;;;;;;;;;;5089593;28;20216;-33
2024/01/06 14:35:11;;;;;;;4.17;3.40;;;;;;;;;;5091531;28;20319;-34
2024/01/06 14:37:39;;;;;;;6.17;3.47;;;;;;;;;;5088528;28;20215;-36
2024/01/06 14:40:09;;;;;;;6.00;3.50;;;;;;;;;;5087530;28;20204;-33
2024/01/06 14:42:37;;;;;;;4.03;3.43;;;;;;;;;;5087765;28;20280;-31
2024/01/06 14:45:08;;;;;;;3.03;2.43;;;;;;;;;;5090580;28;20239;-31
2024/01/06 14:47:38;;;;;;;3.80;3.10;;;;;;;;;;5090700;28;20224;-32
2024/01/06 14:50:11;;;;;;;4.20;3.60;;;;;;;;;;5093423;28;20200;-34
2024/01/06 14:52:40;;;;;;;3.50;3.03;;;;;;;;;;5091291;28;20295;-33
2024/01/06 14:55:09;;;;;;;4.37;3.27;;;;;;;;;;5083064;28;20225;-32
2024/01/06 14:57:40;;;;;;;3.13;2.83;;;;;;;;;;5093822;28;20236;-35
2024/01/06 15:00:12;;;;;;;3.63;3.33;;;;;;;;;;5093784;28;20237;-35
2024/01/06 15:02:40;;;;;;;4.27;3.23;;;;;;;;;;5078724;28;20310;-36
2024/01/06 15:05:12;;;;;;;5.73;3.90;;;;;;;;;;5092820;28;20224;-31
2024/01/06 15:07:41;;;;;;;4.20;3.80;;;;;;;;;;5088384;28;20299;-37
2024/01/06 15:10:10;;;;;;;4.73;3.47;;;;;;;;;;5093666;28;20295;-34
2024/01/06 15:12:38;;;;;;;4.57;3.13;;;;;;;;;;5093597;28;20211;-34
2024/01/06 15:15:08;;;;;;;5.03;3.23;;;;;;;;;;5091602;28;20241;-34
2024/01/06 15:17:37;;;;;;;3.33;3.00;;;;;;;;;;5088446;28;20264;-31
2024/01/06 15:20:19;;;;;;;4.80;3.57;;;;;;;;;;5093575;28;20208;-38
2024/01/06 15:22:53;;;;;;;5.27;3.30;;;;;;;;;;5092872;28;20215;-34
2024/01/06 15:25:22;;;;;;;5.40;3.27;;;;;;;;;;5090983;28;20248;-33
2024/01/06 15:27:52;;;;;;;3.70;3.33;;;;;;;;;;5088074;28;20315;-35
2024/01/06 15:30:23;;;;;;;4.07;3.67;;;;;;;;;;5093276;28;20241;-33
2024/01/06 15:35:24;;;;;;;4.67;3.60;;;;;;;;;;5054184;28;20775;-30
2024/01/06 15:40:24;;;;;;;6.10;4.13;;;;;;;;;;5011426;28;20298;-34
2024/01/06 15:42:55;;;;;;;5.27;3.90;;;;;;;;;;5007539;28;20697;-33
2024/01/06 15:45:27;;;;;;;5.53;3.90;;;;;;;;;;5010222;28;20250;-34
2024/01/06 15:47:56;;;;;;;4.63;3.77;;;;;;;;;;5014291;28;20214;-34
2024/01/06 15:50:29;;;;;;;4.57;4.10;;;;;;;;;;5010825;28;20669;-37
2024/01/06 15:52:58;;;;;;;5.97;3.70;;;;;;;;;;5012992;28;20238;-34
2024/01/06 15:55:29;;;;;;;5.33;4.03;;;;;;;;;;5012419;28;20231;-37
2024/01/06 15:57:57;;;;;;;4.67;3.90;;;;;;;;;;5009856;28;20214;-33
2024/01/06 16:00:28;;;;;;;8.47;5.50;;;;;;;;;;5007192;28;20427;-35
2024/01/06 16:02:58;;;;;;;4.47;3.80;;;;;;;;;;5013562;28;20258;-30
2024/01/06 16:05:32;;;;;;;7.80;4.10;;;;;;;;;;5012940;28;20235;-35
2024/01/06 16:08:07;;;;;;;6.13;4.27;;;;;;;;;;5012249;28;20302;-34
2024/01/06 16:10:40;;;;;;;6.60;4.57;;;;;;;;;;5015089;28;20210;-36
2024/01/06 16:13:10;;;;;;;4.47;4.03;;;;;;;;;;5012665;28;20211;-33
2024/01/06 16:15:45;;;;;;;6.17;4.77;;;;;;;;;;5011150;28;20227;-32
2024/01/06 16:18:17;;;;;;;5.43;4.23;;;;;;;;;;5012391;28;20207;-33
2024/01/06 16:20:50;;;;;;;7.40;4.67;;;;;;;;;;5013018;28;20235;-34
2024/01/06 16:23:24;;;;;;;5.13;4.60;;;;;;;;;;5012477;28;20211;-33
2024/01/06 16:25:53;;;;;;;5.37;4.37;;;;;;;;;;5007505;28;20231;-36
2024/01/06 16:28:23;;;;;;;6.60;4.03;;;;;;;;;;5011727;28;20215;-34
2024/01/06 16:30:53;;;;;;;6.13;4.93;;;;;;;;;;5012475;28;20213;-33
2024/01/06 16:33:25;;;;;;;6.27;4.27;;;;;;;;;;5011846;28;20230;-33
2024/01/06 16:36:00;;;;;;;6.37;4.37;;;;;;;;;;5007475;28;20683;-35
2024/01/06 16:38:34;;;;;;;5.53;4.60;;;;;;;;;;5013957;28;20222;-36
2024/01/06 16:41:03;;;;;;;5.70;4.40;;;;;;;;;;5020747;28;20206;-33
2024/01/06 16:43:41;;;;;;;8.43;5.57;;;;;;;;;;5029025;28;20217;-39
2024/01/06 16:46:32;;;;;;;7.97;6.10;;;;;;;;;;5032545;28;20237;-34
2024/01/06 16:49:07;;;;;;;6.63;5.93;;;;;;;;;;5026005;28;20214;-34
2024/01/06 16:51:51;;;;;;;9.30;6.47;;;;;;;;;;5026727;28;20292;-33
2024/01/06 16:54:21;;;;;;;8.43;5.80;;;;;;;;;;5032310;28;20317;-34
2024/01/06 16:57:04;;;;;;;8.90;6.03;;;;;;;;;;5032442;28;20226;-36
2024/01/06 16:59:42;;;;;;;7.50;5.97;;;;;;;;;;5024215;28;20341;-36
2024/01/06 17:02:15;;;;;;;8.10;6.23;;;;;;;;;;5032819;28;20216;-32
2024/01/06 17:04:46;;;;;;;10.63;6.33;;;;;;;;;;5025110;28;20277;-35
2024/01/06 17:07:20;;;;;;;8.67;6.70;;;;;;;;;;5032859;28;20293;-32
2024/01/06 17:10:02;;;;;;;6.63;5.70;;;;;;;;;;5032432;28;20380;-37
2024/01/06 17:15:24;;;;;;;7.80;5.70;;;;;;;;;;5027356;28;20234;-32
2024/01/06 17:18:01;;;;;;;8.63;5.90;;;;;;;;;;5032300;28;20214;-36
2024/01/06 17:23:02;;;;;;;6.77;5.77;;;;;;;;;;5066936;28;20228;-33
2024/01/06 17:25:58;;;;;;;7.57;6.13;;;;;;;;;;5060810;28;20282;-34
2024/01/06 17:28:29;;;;;;;9.93;6.03;;;;;;;;;;5071089;28;20304;-31
2024/01/06 17:31:01;;;;;;;10.13;6.03;;;;;;;;;;5061943;28;20228;-31
2024/01/06 17:33:33;;;;;;;8.27;5.57;;;;;;;;;;5069880;28;20263;-33
2024/01/06 17:36:08;;;;;;;7.67;5.93;;;;;;;;;;5046360;28;20703;-31
2024/01/06 17:38:44;;;;;;;9.77;6.27;;;;;;;;;;5071443;28;20280;-31
2024/01/06 17:41:15;;;;;;;7.17;5.73;;;;;;;;;;5063222;28;20221;-31
2024/01/06 17:48:54;;;;;;;10.63;6.83;;;;;;;;;;4999120;28;20219;-36
2024/01/06 17:51:24;;;;;;;10.40;6.83;;;;;;;;;;5010053;28;20290;-33
2024/01/06 17:53:55;;;;;;;8.57;6.37;;;;;;;;;;5009071;28;20218;-33
2024/01/06 17:59:08;;;;;;;8.47;5.90;;;;;;;;;;4987999;28;20236;-25
2024/01/06 18:01:38;;;;;;;8.53;5.70;;;;;;;;;;4989491;28;20204;-28
2024/01/06 18:04:09;;;;;;;11.80;7.40;;;;;;;;;;4989638;28;20228;-28
2024/01/06 18:06:42;;;;;;;8.73;7.10;;;;;;;;;;4991616;28;20238;-28
2024/01/06 18:14:35;;;;;;;8.33;6.30;;;;;;;;;;5009910;28;20260;-32
2024/01/06 18:17:10;;;;;;;11.57;7.87;;;;;;;;;;5002101;28;20220;-32
2024/01/06 18:19:55;;;;;;;12.20;7.50;;;;;;;;;;5008704;28;20207;-37
2024/01/06 18:22:26;;;;;;;10.83;7.57;;;;;;;;;;5011789;28;20214;-31
2024/01/06 18:25:04;;;;;;;10.57;7.20;;;;;;;;;;5011695;28;20231;-35
2024/01/06 18:27:35;;;;;;;8.90;6.93;;;;;;;;;;5004679;28;20204;-34
2024/01/06 18:30:08;;;;;;;11.37;7.00;;;;;;;;;;5005164;28;20500;-35
2024/01/06 18:32:45;;;;;;;8.73;7.20;;;;;;;;;;5011955;28;20295;-34
2024/01/06 18:35:18;;;;;;;9.80;7.23;;;;;;;;;;5009498;28;20254;-36
2024/01/06 18:37:49;;;;;;;10.47;7.73;;;;;;;;;;5011884;28;20219;-34